Terminal Aerodrome Forecast
Issued by NWS

Home | Current Version | Previous Version | Text Only | Print | Product List | Glossary On
Versions: 1 2 3 4 5 6 7 8 9 10 11 12 13 14 15 16 17 18 19 20 21 22 23 24 25 26 27
740
FTUS43 KSGF 061139 CCA
TAFJLN
TAF COR
KJLN 061139Z 0612/0712 34008KT 6SM BR BKN015
      TEMPO 0612/0614 OVC008
     FM061400 35010KT 6SM BR SCT030
     FM061600 35012KT P6SM SCT140
     FM062200 35007KT P6SM FEW200
     FM070100 VRB03KT P6SM BKN250=

USA.gov is the U.S. government's official web portal to all federal, state and local government web resources and services.